Time;durP1;ratioP1;P1;durP2;ratioP2;P2;SDS_P1;SDS_P2;PMS_P1;PMS_P2;Temp;Humidity;BMP_temperature;BMP_pressure;BME280_temperature;BME280_humidity;BME280_pressure;Samples;Min_cycle;Max_cycle;Signal;HPM_P1;HPM_P2
2021/09/05 00:00:26;;;;;;;7.67;4.67;;;;;;;15.27;55.21;101456.84;6180722;23;20162;-65
2021/09/05 00:02:52;;;;;;;7.20;5.23;;;;;;;15.27;55.59;101470.81;6180905;23;20155;-65
2021/09/05 00:05:17;;;;;;;9.93;5.70;;;;;;;15.13;55.60;101456.50;6182736;23;20236;-66
2021/09/05 00:07:43;;;;;;;7.17;5.37;;;;;;;15.14;56.10;101469.22;6182782;23;20154;-66
2021/09/05 00:10:09;;;;;;;6.70;5.40;;;;;;;15.10;56.02;101460.97;6182650;23;20152;-65
2021/09/05 00:12:35;;;;;;;6.93;4.80;;;;;;;14.94;56.49;101452.66;6181847;23;20236;-65
2021/09/05 00:15:00;;;;;;;8.20;6.30;;;;;;;15.00;56.36;101475.22;6182330;23;20370;-65
2021/09/05 00:17:26;;;;;;;8.17;5.40;;;;;;;14.96;56.34;101472.53;6182565;23;20225;-65
2021/09/05 00:19:51;;;;;;;6.47;5.27;;;;;;;14.71;56.36;101438.94;6182868;23;20760;-65
2021/09/05 00:22:16;;;;;;;9.93;5.30;;;;;;;14.91;56.81;101477.88;6181880;23;20156;-65
2021/09/05 00:24:42;;;;;;;8.97;5.27;;;;;;;14.89;56.76;101474.72;6181960;23;20159;-65
2021/09/05 00:27:08;;;;;;;6.57;4.90;;;;;;;14.87;56.83;101472.41;6182560;23;20152;-65
2021/09/05 00:29:33;;;;;;;6.77;4.93;;;;;;;14.59;56.69;101441.69;6183195;23;20209;-65
2021/09/05 00:31:59;;;;;;;6.70;4.77;;;;;;;14.84;56.94;101478.84;6181666;23;20505;-65
2021/09/05 00:34:24;;;;;;;9.00;4.97;;;;;;;14.83;57.07;101482.88;6181398;23;20150;-65
2021/09/05 00:36:50;;;;;;;7.10;5.33;;;;;;;14.79;56.99;101481.38;6182601;23;20604;-65
2021/09/05 00:39:15;;;;;;;6.97;5.33;;;;;;;14.76;57.21;101491.41;6182223;23;20600;-65
2021/09/05 00:41:40;;;;;;;7.37;4.77;;;;;;;14.73;56.43;101497.09;6182002;23;20156;-65
2021/09/05 00:44:08;;;;;;;6.30;4.43;;;;;;;14.61;56.52;101511.78;6181782;23;20164;-65
2021/09/05 00:46:35;;;;;;;8.63;5.23;;;;;;;14.55;56.60;101502.38;6182247;23;20208;-65
2021/09/05 00:49:01;;;;;;;6.63;4.70;;;;;;;14.46;56.67;101489.06;6182495;23;20169;-65
2021/09/05 00:51:29;;;;;;;6.53;5.10;;;;;;;14.54;57.10;101498.81;6181325;23;20569;-65
2021/09/05 00:53:57;;;;;;;7.83;4.70;;;;;;;14.08;57.16;101459.38;6182360;23;20496;-66
2021/09/05 00:56:22;;;;;;;6.47;5.10;;;;;;;13.80;57.26;101446.91;6181714;23;20629;-65
2021/09/05 00:58:48;;;;;;;6.57;4.70;;;;;;;14.10;58.20;101512.66;6182594;23;20188;-65
2021/09/05 01:01:13;;;;;;;6.60;4.77;;;;;;;14.20;57.93;101515.19;6181697;23;20152;-65
2021/09/05 01:03:39;;;;;;;10.90;5.30;;;;;;;13.87;58.00;101462.66;6182414;23;20164;-65
2021/09/05 01:06:05;;;;;;;10.40;5.60;;;;;;;13.85;58.15;101465.88;6181858;23;20149;-65
2021/09/05 01:08:30;;;;;;;7.60;4.50;;;;;;;14.34;57.84;101528.78;6182241;23;20149;-65
2021/09/05 01:10:56;;;;;;;8.90;4.40;;;;;;;14.36;57.81;101534.75;6182106;23;20532;-65
2021/09/05 01:13:22;;;;;;;8.13;4.83;;;;;;;14.31;58.17;101531.69;6180849;23;20623;-65
2021/09/05 01:15:48;;;;;;;7.43;5.20;;;;;;;14.35;57.90;101529.59;6182014;23;20212;-65
2021/09/05 01:18:14;;;;;;;7.70;5.10;;;;;;;14.37;58.31;101539.09;6155693;23;20537;-65
2021/09/05 01:20:39;;;;;;;8.10;5.20;;;;;;;14.26;56.40;101532.19;6182155;23;20151;-65
2021/09/05 01:23:04;;;;;;;7.17;4.60;;;;;;;14.19;56.23;101532.34;6181387;23;20150;-65
2021/09/05 01:25:30;;;;;;;5.93;5.20;;;;;;;14.13;56.54;101526.50;6181320;23;20631;-65
2021/09/05 01:27:55;;;;;;;8.77;4.87;;;;;;;14.00;57.14;101524.84;6182365;23;20176;-65
2021/09/05 01:30:21;;;;;;;6.33;4.97;;;;;;;14.04;57.11;101529.09;6182159;23;20156;-65
2021/09/05 01:32:46;;;;;;;8.30;5.00;;;;;;;14.06;57.73;101531.47;6181066;23;20268;-65
2021/09/05 01:35:12;;;;;;;9.30;5.53;;;;;;;13.66;57.82;101479.84;6181729;23;20184;-65
2021/09/05 01:37:37;;;;;;;8.10;5.80;;;;;;;13.99;58.05;101528.84;6181643;23;20234;-65
2021/09/05 01:40:04;;;;;;;7.60;5.30;;;;;;;13.96;57.96;101538.06;6182250;23;20165;-65
2021/09/05 01:42:29;;;;;;;10.97;5.60;;;;;;;13.36;58.06;101449.50;6180811;23;20162;-65
2021/09/05 01:44:55;;;;;;;6.13;4.80;;;;;;;13.85;57.41;101526.38;6182522;23;20160;-64
2021/09/05 01:47:20;;;;;;;8.47;5.33;;;;;;;13.76;57.90;101526.97;6181273;23;20662;-65
2021/09/05 01:49:46;;;;;;;9.17;5.33;;;;;;;13.76;58.39;101532.56;6182170;23;20159;-65
2021/09/05 01:52:11;;;;;;;8.57;5.57;;;;;;;13.76;57.87;101534.53;6181560;23;20153;-65
2021/09/05 01:54:37;;;;;;;6.40;5.13;;;;;;;13.70;57.92;101528.72;6181776;23;20689;-65
2021/09/05 01:57:02;;;;;;;7.17;5.70;;;;;;;13.68;58.21;101538.72;6181393;23;20153;-65
2021/09/05 01:59:28;;;;;;;9.47;5.67;;;;;;;13.65;58.05;101540.38;6182073;23;20493;-64
2021/09/05 02:01:54;;;;;;;9.10;5.53;;;;;;;13.64;58.19;101540.78;6181434;23;20207;-65
2021/09/05 02:04:19;;;;;;;6.43;5.10;;;;;;;13.49;58.34;101514.47;6181361;23;20187;-65
2021/09/05 02:06:45;;;;;;;7.97;5.23;;;;;;;13.42;58.14;101509.81;6181565;23;20156;-65
2021/09/05 02:09:10;;;;;;;10.27;5.50;;;;;;;13.37;58.09;101515.91;6181886;23;20254;-65
2021/09/05 02:11:36;;;;;;;9.17;6.10;;;;;;;13.08;58.31;101484.31;6181031;23;20186;-65
2021/09/05 02:14:02;;;;;;;11.10;5.77;;;;;;;13.48;58.41;101546.31;6181651;23;20177;-65
2021/09/05 02:16:28;;;;;;;8.90;6.00;;;;;;;13.31;58.78;101534.31;6155201;23;20168;-63
2021/09/05 02:18:53;;;;;;;8.40;5.20;;;;;;;13.16;57.90;101540.63;6181296;23;20179;-65
2021/09/05 02:21:19;;;;;;;8.10;5.30;;;;;;;12.94;58.68;101533.84;6181119;23;20176;-65
2021/09/05 02:23:44;;;;;;;9.10;5.73;;;;;;;12.38;59.55;101493.97;6181864;23;20153;-65
2021/09/05 02:26:10;;;;;;;7.67;5.80;;;;;;;12.65;60.21;101543.94;6184104;23;20495;-65
2021/09/05 02:28:36;;;;;;;8.57;5.47;;;;;;;12.49;60.64;101541.81;6183228;23;20152;-65
2021/09/05 02:31:01;;;;;;;10.43;6.13;;;;;;;12.07;61.09;101489.72;6183858;23;20231;-65
2021/09/05 02:33:27;;;;;;;11.33;6.20;;;;;;;12.15;61.29;101490.41;6182447;23;20167;-64
2021/09/05 02:35:52;;;;;;;8.73;6.33;;;;;;;12.39;61.26;101533.66;6157447;23;20148;-65
2021/09/05 02:38:18;;;;;;;9.30;6.10;;;;;;;12.40;61.11;101541.56;6182923;23;20173;-65
2021/09/05 02:40:43;;;;;;;10.70;5.80;;;;;;;12.37;61.28;101552.75;6183660;23;20210;-65
2021/09/05 02:43:09;;;;;;;11.83;6.57;;;;;;;12.01;61.12;101490.63;6182774;23;20160;-65
2021/09/05 02:45:35;;;;;;;11.53;6.83;;;;;;;12.40;61.23;101549.13;6183216;23;20642;-64
2021/09/05 02:48:00;;;;;;;12.13;6.57;;;;;;;12.42;61.46;101549.50;6183480;23;20144;-65
2021/09/05 02:50:26;;;;;;;14.33;6.90;;;;;;;12.24;61.33;101522.00;6183187;23;20149;-64
2021/09/05 02:52:51;;;;;;;14.43;6.40;;;;;;;12.38;61.35;101554.31;6182807;23;20161;-65
2021/09/05 02:55:17;;;;;;;12.47;6.60;;;;;;;12.23;61.78;101556.56;6183538;23;20187;-63
2021/09/05 02:57:42;;;;;;;9.40;6.60;;;;;;;11.92;61.89;101499.50;6183581;23;20212;-63
2021/09/05 03:00:10;;;;;;;11.23;6.63;;;;;;;12.05;62.23;101544.13;6183277;23;20389;-63
2021/09/05 03:02:35;;;;;;;8.17;6.50;;;;;;;12.10;62.47;101547.22;6182665;23;20184;-65
2021/09/05 03:05:01;;;;;;;10.90;7.00;;;;;;;12.25;62.04;101572.81;6183462;23;20156;-65
2021/09/05 03:07:26;;;;;;;9.90;7.07;;;;;;;12.32;62.29;101562.38;6183340;23;20172;-65
2021/09/05 03:09:52;;;;;;;9.30;6.40;;;;;;;12.27;62.34;101548.16;6183099;23;20224;-65
2021/09/05 03:12:17;;;;;;;9.90;6.40;;;;;;;12.14;62.13;101534.06;6182692;23;20482;-65
2021/09/05 03:14:43;;;;;;;9.47;6.47;;;;;;;12.46;62.33;101567.69;6183205;23;20152;-65
2021/09/05 03:17:08;;;;;;;9.93;6.50;;;;;;;12.42;62.50;101564.19;6183087;23;20160;-65
2021/09/05 03:19:33;;;;;;;10.90;6.90;;;;;;;12.46;62.91;101566.91;6182788;23;20506;-65
2021/09/05 03:21:59;;;;;;;10.67;6.80;;;;;;;12.49;62.84;101568.81;6182796;23;20176;-65
2021/09/05 03:24:24;;;;;;;11.63;6.67;;;;;;;12.43;63.28;101560.19;6182851;23;20152;-65
2021/09/05 03:26:50;;;;;;;12.40;6.33;;;;;;;12.29;62.87;101517.97;6183399;23;20240;-65
2021/09/05 03:29:16;;;;;;;10.50;6.50;;;;;;;12.59;62.74;101581.75;6182883;23;20172;-62
2021/09/05 03:31:41;;;;;;;7.97;6.00;;;;;;;12.70;62.78;101585.94;6182299;23;20162;-63
2021/09/05 03:34:07;;;;;;;12.30;6.30;;;;;;;12.80;62.13;101587.00;6183095;23;20159;-63
2021/09/05 03:36:32;;;;;;;11.07;6.77;;;;;;;12.83;61.46;101580.56;6182937;23;20156;-65
2021/09/05 03:38:58;;;;;;;9.73;5.90;;;;;;;12.94;60.91;101589.50;6183172;23;20180;-65
2021/09/05 03:41:23;;;;;;;11.67;6.00;;;;;;;13.00;60.83;101598.94;6181845;23;20595;-65
2021/09/05 03:43:49;;;;;;;9.83;6.40;;;;;;;13.02;61.23;101599.31;6182994;23;20157;-65
2021/09/05 03:46:14;;;;;;;8.67;5.93;;;;;;;13.06;61.02;101598.03;6182598;23;20204;-65
2021/09/05 03:48:40;;;;;;;10.63;6.73;;;;;;;13.11;61.03;101605.91;6183026;23;20232;-64
2021/09/05 03:51:05;;;;;;;8.90;6.50;;;;;;;13.10;60.93;101598.75;6182283;23;20156;-65
2021/09/05 03:53:30;;;;;;;8.53;6.03;;;;;;;13.14;60.35;101609.81;6182068;23;20160;-65
2021/09/05 03:55:56;;;;;;;7.03;5.07;;;;;;;12.93;59.87;101630.47;6183180;23;20163;-64
2021/09/05 03:58:22;;;;;;;9.70;6.20;;;;;;;12.81;60.19;101617.13;6182800;23;20180;-64
2021/09/05 04:00:47;;;;;;;9.10;5.80;;;;;;;12.59;60.10;101585.34;6182597;23;20153;-64
2021/09/05 04:03:13;;;;;;;8.33;5.83;;;;;;;12.68;60.92;101623.72;6181875;23;20160;-65
2021/09/05 04:05:38;;;;;;;9.30;6.40;;;;;;;12.53;60.91;101608.47;6182895;23;20166;-65
2021/09/05 04:10:30;;;;;;;8.33;6.43;;;;;;;12.56;62.12;101627.13;6183012;23;20528;-63
2021/09/05 04:12:57;;;;;;;10.03;6.77;;;;;;;12.56;62.48;101629.91;6181541;23;20161;-65
2021/09/05 04:15:23;;;;;;;10.43;6.17;;;;;;;12.64;62.18;101634.13;6182626;23;20616;-65
2021/09/05 04:17:49;;;;;;;12.30;6.30;;;;;;;12.65;61.46;101630.16;6182715;23;20183;-65
2021/09/05 04:20:14;;;;;;;10.07;6.10;;;;;;;12.51;61.19;101611.69;6182768;23;20204;-65
2021/09/05 04:22:40;;;;;;;9.67;6.43;;;;;;;12.73;61.33;101634.38;6181413;23;20588;-65
2021/09/05 04:25:06;;;;;;;9.77;6.30;;;;;;;12.73;61.81;101639.94;6182672;23;20559;-65
2021/09/05 04:27:32;;;;;;;8.73;6.07;;;;;;;12.73;62.01;101649.06;6181088;23;20152;-65
2021/09/05 04:29:58;;;;;;;7.43;6.03;;;;;;;12.75;62.34;101648.66;6182735;23;20163;-65
2021/09/05 04:32:23;;;;;;;9.33;6.07;;;;;;;12.80;61.98;101650.97;6181214;23;20150;-65
2021/09/05 04:34:49;;;;;;;11.37;7.07;;;;;;;12.72;61.81;101624.47;6182560;23;20667;-64
2021/09/05 04:37:19;;;;;;;8.90;6.70;;;;;;;12.90;61.80;101648.00;6182312;23;20623;-65
2021/09/05 04:39:47;;;;;;;10.13;6.20;;;;;;;12.97;61.66;101649.91;6182698;23;20232;-65
2021/09/05 04:42:13;;;;;;;10.13;6.33;;;;;;;12.68;61.89;101601.47;6181407;23;20156;-64
2021/09/05 04:44:39;;;;;;;11.07;6.27;;;;;;;12.92;61.73;101639.22;6182214;23;20149;-64
2021/09/05 04:47:05;;;;;;;8.20;6.00;;;;;;;13.05;61.74;101652.13;6182138;23;20605;-65
2021/09/05 04:49:31;;;;;;;9.83;5.77;;;;;;;12.59;61.94;101613.16;6182880;23;20156;-65
2021/09/05 04:51:57;;;;;;;9.23;5.60;;;;;;;13.01;61.39;101662.53;6181462;23;20154;-65
2021/09/05 04:54:22;;;;;;;9.70;5.90;;;;;;;13.11;61.44;101661.56;6182167;23;20168;-65
2021/09/05 04:56:48;;;;;;;8.10;5.37;;;;;;;12.87;61.23;101603.53;6182508;23;20152;-65
2021/09/05 04:59:13;;;;;;;7.37;5.60;;;;;;;13.34;61.21;101666.31;6182097;23;20185;-65
2021/09/05 05:01:39;;;;;;;8.27;5.87;;;;;;;13.14;61.08;101621.75;6181628;23;20164;-64
2021/09/05 05:04:04;;;;;;;8.70;5.77;;;;;;;13.49;61.12;101650.91;6181794;23;20157;-64
2021/09/05 05:06:30;;;;;;;10.37;5.60;;;;;;;13.66;60.47;101658.91;6182097;23;20154;-64
2021/09/05 05:08:55;;;;;;;10.47;5.80;;;;;;;13.74;60.29;101667.91;6182613;23;20156;-65
2021/09/05 05:11:21;;;;;;;9.53;5.43;;;;;;;13.55;60.53;101622.16;6181711;23;20160;-65
2021/09/05 05:13:46;;;;;;;7.20;5.60;;;;;;;13.94;60.09;101671.50;6181559;23;20501;-64
2021/09/05 05:16:12;;;;;;;6.47;5.03;;;;;;;14.03;60.13;101672.47;6182126;23;20217;-64
2021/09/05 05:18:38;;;;;;;10.87;5.37;;;;;;;14.15;59.55;101677.38;6182206;23;20191;-64
2021/09/05 05:21:03;;;;;;;7.40;5.73;;;;;;;14.24;59.29;101671.28;6182161;23;20164;-64
2021/09/05 05:23:29;;;;;;;11.10;5.97;;;;;;;14.26;58.97;101666.03;6154500;23;20164;-65
2021/09/05 05:25:57;;;;;;;7.60;5.80;;;;;;;14.45;58.84;101674.34;6182213;23;20673;-65
2021/09/05 05:28:23;;;;;;;19.13;6.10;;;;;;;14.53;58.50;101675.75;6182047;23;20155;-64
2021/09/05 05:30:48;;;;;;;7.83;5.77;;;;;;;14.60;58.37;101678.38;6182302;23;20153;-65
2021/09/05 05:33:14;;;;;;;9.80;6.93;;;;;;;14.71;58.27;101680.91;6180382;23;20167;-65
2021/09/05 05:35:39;;;;;;;11.80;6.10;;;;;;;14.57;58.32;101642.19;6182029;23;20156;-64
2021/09/05 05:38:05;;;;;;;8.13;5.50;;;;;;;14.96;58.18;101687.44;6182228;23;20180;-64
2021/09/05 05:40:33;;;;;;;7.57;5.93;;;;;;;14.93;58.41;101668.00;6182247;23;20155;-65
2021/09/05 05:43:00;;;;;;;10.53;6.00;;;;;;;15.18;58.50;101690.50;6181274;23;20156;-65
2021/09/05 05:45:25;;;;;;;13.13;6.33;;;;;;;15.00;58.25;101643.50;6181252;23;20231;-65
2021/09/05 05:47:51;;;;;;;11.83;6.60;;;;;;;15.30;57.50;101670.22;6181960;23;20670;-64
2021/09/05 05:50:16;;;;;;;12.90;6.17;;;;;;;15.34;57.56;101680.13;6181572;23;20152;-65
2021/09/05 05:52:42;;;;;;;9.83;6.37;;;;;;;15.46;57.98;101690.56;6181982;23;20152;-64
2021/09/05 05:55:08;;;;;;;10.20;6.40;;;;;;;15.60;57.79;101695.78;6181528;23;20153;-65
2021/09/05 05:57:33;;;;;;;8.80;6.60;;;;;;;15.59;58.36;101699.78;6182089;23;20255;-65
2021/09/05 05:59:59;;;;;;;9.63;6.20;;;;;;;15.16;58.75;101611.97;6183444;23;20149;-64
2021/09/05 06:02:24;;;;;;;11.50;6.40;;;;;;;15.77;58.66;101694.47;6183032;23;20526;-64
2021/09/05 06:04:50;;;;;;;11.97;6.10;;;;;;;15.54;58.55;101638.06;6183302;23;20149;-65
2021/09/05 06:07:15;;;;;;;9.23;6.37;;;;;;;15.60;58.46;101631.50;6183996;23;20160;-65
2021/09/05 06:09:42;;;;;;;12.20;6.63;;;;;;;16.12;58.11;101685.06;6183871;23;20157;-65
2021/09/05 06:12:08;;;;;;;10.90;6.67;;;;;;;16.26;57.68;101693.03;6183564;23;20245;-64
2021/09/05 06:14:33;;;;;;;11.10;6.90;;;;;;;16.41;57.10;101699.00;6183031;23;20178;-65
2021/09/05 06:16:59;;;;;;;11.90;6.30;;;;;;;16.12;56.91;101637.53;6183887;23;20599;-65
2021/09/05 06:19:24;;;;;;;10.93;5.93;;;;;;;16.72;56.58;101702.81;6183686;23;20154;-64
2021/09/05 06:21:50;;;;;;;8.43;6.43;;;;;;;16.82;56.10;101698.91;6182951;23;20482;-65
2021/09/05 06:24:15;;;;;;;10.33;6.30;;;;;;;16.93;56.54;101704.94;6183278;23;20180;-65
2021/09/05 06:26:41;;;;;;;13.07;6.67;;;;;;;17.09;55.95;101700.00;6183344;23;20511;-63
2021/09/05 06:29:06;;;;;;;8.93;5.73;;;;;;;17.24;55.08;101700.28;6183861;23;20156;-63
2021/09/05 06:31:32;;;;;;;10.47;6.67;;;;;;;17.39;54.36;101697.81;6182959;23;20159;-63
2021/09/05 06:33:57;;;;;;;10.50;6.23;;;;;;;17.48;53.90;101703.50;6183508;23;20625;-63
2021/09/05 06:36:23;;;;;;;13.03;6.33;;;;;;;17.63;53.04;101715.75;6183050;23;20211;-63
2021/09/05 06:38:48;;;;;;;9.97;6.50;;;;;;;17.81;52.62;101711.09;6183789;23;20191;-63
2021/09/05 06:41:15;;;;;;;10.07;6.33;;;;;;;17.83;53.03;101716.25;6183105;23;20180;-63
2021/09/05 06:43:40;;;;;;;8.73;6.27;;;;;;;17.95;52.55;101713.38;6183877;23;20339;-63
2021/09/05 06:46:06;;;;;;;9.90;6.40;;;;;;;18.10;51.66;101728.44;6182958;23;20234;-63
2021/09/05 06:48:32;;;;;;;9.00;6.23;;;;;;;18.18;51.13;101719.28;6183434;23;20169;-63
2021/09/05 06:50:58;;;;;;;7.00;5.60;;;;;;;18.23;49.39;101724.31;6184120;23;20156;-63
2021/09/05 06:53:23;;;;;;;7.97;5.67;;;;;;;18.42;49.04;101716.81;6182128;23;20220;-63
2021/09/05 06:55:49;;;;;;;8.97;5.67;;;;;;;18.39;48.05;101680.47;6183325;23;20163;-62
2021/09/05 06:58:14;;;;;;;8.80;5.93;;;;;;;18.69;47.72;101710.53;6183463;23;20181;-62
2021/09/05 07:00:40;;;;;;;6.90;5.20;;;;;;;18.83;47.22;101727.59;6183857;23;20635;-63
2021/09/05 07:03:05;;;;;;;10.63;5.77;;;;;;;18.96;46.75;101719.06;6182656;23;20545;-63
2021/09/05 07:05:31;;;;;;;9.27;5.67;;;;;;;19.07;46.52;101722.22;6183242;23;20162;-63
2021/09/05 07:08:15;;;;;;;7.73;5.43;;;;;;;19.29;46.30;101731.38;6183281;23;20610;-63
2021/09/05 07:10:41;;;;;;;7.60;5.37;;;;;;;19.37;46.19;101741.03;6183209;23;20154;-63
2021/09/05 07:13:06;;;;;;;9.13;5.80;;;;;;;19.42;46.46;101754.47;6182176;23;20549;-63
2021/09/05 07:15:34;;;;;;;8.80;6.00;;;;;;;19.40;46.13;101738.06;6183237;23;20149;-63
2021/09/05 07:18:00;;;;;;;9.37;5.23;;;;;;;19.49;46.56;101737.34;6182862;23;20240;-63
2021/09/05 07:20:26;;;;;;;10.83;6.20;;;;;;;19.56;46.46;101742.63;6182846;23;20168;-63
2021/09/05 07:22:51;;;;;;;10.47;5.80;;;;;;;19.51;46.58;101746.84;6179846;23;20879;-64
2021/09/05 07:25:18;;;;;;;10.97;6.20;;;;;;;19.56;46.51;101756.69;6174281;23;20159;-63
2021/09/05 07:27:43;;;;;;;9.90;5.87;;;;;;;19.84;46.34;101763.88;6179570;23;20149;-63
2021/09/05 07:30:09;;;;;;;8.63;5.30;;;;;;;19.56;46.21;101701.25;6179683;23;20162;-64
2021/09/05 07:32:35;;;;;;;7.73;5.70;;;;;;;19.96;45.38;101752.47;6180691;23;20156;-63
2021/09/05 07:35:00;;;;;;;9.63;5.47;;;;;;;20.16;45.36;101755.63;6180865;23;20184;-63
2021/09/05 07:37:26;;;;;;;7.13;5.83;;;;;;;20.20;44.63;101753.44;6181207;23;20242;-63
2021/09/05 07:39:52;;;;;;;10.17;5.40;;;;;;;20.19;44.94;101751.88;6181848;23;20225;-63
2021/09/05 07:42:17;;;;;;;8.00;5.97;;;;;;;20.26;43.99;101751.53;6181494;23;20241;-63
2021/09/05 07:44:43;;;;;;;9.10;5.60;;;;;;;20.43;44.09;101754.78;6180336;23;20149;-63
2021/09/05 07:47:08;;;;;;;9.60;5.90;;;;;;;20.28;44.32;101754.69;6181142;23;20211;-63
2021/09/05 07:49:33;;;;;;;9.50;5.40;;;;;;;20.39;44.02;101734.47;6181223;23;20153;-63
2021/09/05 07:51:59;;;;;;;7.33;5.57;;;;;;;20.57;43.28;101754.13;6179449;23;20149;-64
2021/09/05 07:54:24;;;;;;;10.10;5.13;;;;;;;20.68;42.76;101755.16;6178751;23;20481;-63
2021/09/05 07:56:50;;;;;;;9.50;5.70;;;;;;;20.83;42.61;101756.06;6179005;23;20548;-64
2021/09/05 07:59:16;;;;;;;10.67;5.50;;;;;;;20.46;43.07;101689.84;6178528;23;20570;-64
2021/09/05 08:01:42;;;;;;;9.00;5.13;;;;;;;20.88;43.60;101740.56;6178356;23;20165;-64
2021/09/05 08:04:07;;;;;;;16.97;5.53;;;;;;;21.17;42.34;101757.63;6179435;23;20194;-64
2021/09/05 08:06:33;;;;;;;9.23;5.60;;;;;;;21.22;42.30;101763.41;6180016;23;20615;-63
2021/09/05 08:08:58;;;;;;;9.00;5.40;;;;;;;21.24;43.06;101755.25;6180459;23;20551;-66
2021/09/05 08:11:27;;;;;;;9.73;5.83;;;;;;;21.24;42.90;101754.50;6181106;23;20207;-63
2021/09/05 08:13:53;;;;;;;11.23;5.77;;;;;;;21.33;41.69;101754.44;6181064;23;20149;-63
2021/09/05 08:16:19;;;;;;;7.47;5.90;;;;;;;21.16;41.81;101730.72;6155251;23;20153;-63
2021/09/05 08:18:45;;;;;;;7.47;5.83;;;;;;;21.39;41.26;101761.72;6181985;23;20247;-64
2021/09/05 08:21:11;;;;;;;9.90;6.10;;;;;;;21.49;41.13;101754.78;6181352;23;20158;-63
2021/09/05 08:23:38;;;;;;;10.20;5.70;;;;;;;21.69;40.74;101771.13;6180073;23;20167;-64
2021/09/05 08:26:06;;;;;;;9.90;5.30;;;;;;;21.59;40.85;101747.81;6181916;23;20614;-64
2021/09/05 08:28:32;;;;;;;9.87;5.57;;;;;;;21.77;40.59;101763.84;6179701;23;20153;-64
2021/09/05 08:30:58;;;;;;;14.40;6.03;;;;;;;21.58;40.65;101726.50;6181854;23;20515;-64
2021/09/05 08:33:24;;;;;;;8.83;6.10;;;;;;;21.90;40.03;101750.28;6179832;23;20177;-64
2021/09/05 08:35:49;;;;;;;8.40;5.50;;;;;;;22.16;39.97;101751.28;6182223;23;20237;-64
2021/09/05 08:38:15;;;;;;;9.13;5.30;;;;;;;22.19;39.77;101717.22;6182000;23;20635;-63
2021/09/05 08:40:47;;;;;;;8.87;5.47;;;;;;;22.70;39.32;101751.50;6181423;23;20623;-66
2021/09/05 08:43:14;;;;;;;9.60;5.40;;;;;;;22.91;38.61;101755.16;6181048;23;20153;-66
2021/09/05 08:45:43;;;;;;;11.70;5.50;;;;;;;22.75;37.47;101714.06;6181742;23;20157;-65
2021/09/05 08:48:08;;;;;;;8.23;5.60;;;;;;;23.13;37.40;101744.19;6182517;23;20137;-66
2021/09/05 08:50:35;;;;;;;9.43;5.10;;;;;;;23.13;37.34;101735.72;6181677;23;20687;-65
2021/09/05 08:53:01;;;;;;;7.13;4.80;;;;;;;23.43;37.18;101740.78;6181333;23;20153;-66
2021/09/05 08:55:27;;;;;;;10.03;5.60;;;;;;;23.35;36.96;101697.22;6182393;23;20592;-66
2021/09/05 08:57:53;;;;;;;11.13;5.67;;;;;;;23.75;36.80;101738.88;6182128;23;20181;-66
2021/09/05 09:00:19;;;;;;;8.73;5.37;;;;;;;23.84;36.92;101735.91;6180893;23;20504;-65
2021/09/05 09:02:53;;;;;;;8.03;4.93;;;;;;;23.68;36.17;101740.06;6180700;23;20436;-66
2021/09/05 09:05:36;;;;;;;8.20;4.90;;;;;;;23.91;36.47;101739.06;6182914;23;20144;-66
2021/09/05 09:08:12;;;;;;;7.77;4.50;;;;;;;24.14;36.45;101734.41;6182511;23;20183;-66
2021/09/05 09:10:47;;;;;;;10.07;5.20;;;;;;;24.18;35.46;101734.97;6155028;23;20183;-65
2021/09/05 09:13:27;;;;;;;8.47;5.00;;;;;;;24.43;34.99;101728.53;6179896;23;20236;-66
2021/09/05 09:15:54;;;;;;;12.47;5.10;;;;;;;24.01;34.92;101698.00;6181594;23;20232;-66
2021/09/05 09:18:25;;;;;;;7.17;4.77;;;;;;;24.43;34.71;101731.34;6181888;23;20206;-66
2021/09/05 09:20:50;;;;;;;8.00;4.90;;;;;;;24.03;34.55;101666.34;6182119;23;20496;-65
2021/09/05 09:23:19;;;;;;;6.40;4.50;;;;;;;24.60;34.16;101730.25;6181082;23;20236;-65
2021/09/05 09:25:52;;;;;;;8.63;4.60;;;;;;;24.50;34.73;101731.69;6181895;23;20630;-65
2021/09/05 09:28:23;;;;;;;8.53;4.80;;;;;;;24.54;34.93;101726.56;6181419;23;20762;-66
2021/09/05 09:30:48;;;;;;;10.97;5.13;;;;;;;24.63;34.84;101719.97;6181831;23;20227;-65
2021/09/05 09:33:20;;;;;;;7.03;4.90;;;;;;;24.54;34.39;101720.13;6180392;23;20513;-65
2021/09/05 09:35:50;;;;;;;6.53;4.93;;;;;;;24.44;35.34;101725.19;6180892;23;20544;-65
2021/09/05 09:38:17;;;;;;;11.07;5.03;;;;;;;24.52;34.39;101723.44;6181324;23;20180;-65
2021/09/05 09:40:43;;;;;;;10.40;5.03;;;;;;;24.56;34.60;101715.50;6181791;23;20157;-66
2021/09/05 09:43:21;;;;;;;13.27;5.30;;;;;;;24.72;34.74;101709.19;6180162;23;20153;-66
2021/09/05 09:45:47;;;;;;;6.67;4.87;;;;;;;24.90;34.59;101716.53;6181693;23;20156;-66
2021/09/05 09:48:23;;;;;;;6.90;4.50;;;;;;;25.06;35.16;101715.88;6181821;23;20157;-65
2021/09/05 09:50:57;;;;;;;9.20;4.73;;;;;;;25.08;33.28;101714.09;6156087;23;20631;-65
2021/09/05 09:53:22;;;;;;;6.83;4.10;;;;;;;24.90;33.75;101674.00;6180575;23;20216;-65
2021/09/05 09:55:48;;;;;;;9.23;4.37;;;;;;;25.33;34.11;101716.06;6182238;23;20220;-65
2021/09/05 09:58:13;;;;;;;8.77;4.40;;;;;;;25.54;33.94;101717.44;6181625;23;20184;-66
2021/09/05 10:00:40;;;;;;;6.53;4.40;;;;;;;25.57;33.18;101716.44;6181865;23;20163;-65
2021/09/05 10:03:08;;;;;;;6.17;4.33;;;;;;;25.70;33.45;101715.97;6180724;23;20149;-65
2021/09/05 10:05:34;;;;;;;6.43;4.27;;;;;;;25.99;33.01;101710.63;6182128;23;20149;-66
2021/09/05 10:08:00;;;;;;;6.43;4.40;;;;;;;25.92;30.94;101670.59;6182153;23;20144;-66
2021/09/05 10:10:26;;;;;;;9.23;4.50;;;;;;;26.14;31.68;101708.34;6181700;23;20153;-65
2021/09/05 10:12:54;;;;;;;5.80;4.07;;;;;;;25.94;32.30;101673.72;6180501;23;20157;-65
2021/09/05 10:15:20;;;;;;;7.87;4.27;;;;;;;26.37;31.37;101700.63;6180697;23;20149;-65
2021/09/05 10:17:47;;;;;;;6.90;4.30;;;;;;;26.25;31.19;101682.00;6181587;23;20635;-65
2021/09/05 10:20:14;;;;;;;6.50;3.67;;;;;;;26.46;31.00;101686.91;6180407;23;20545;-65
2021/09/05 10:22:41;;;;;;;6.37;4.20;;;;;;;26.41;30.85;101667.03;6179576;23;20141;-65
2021/09/05 10:25:06;;;;;;;5.60;4.40;;;;;;;26.46;31.41;101698.28;6181132;23;20160;-65
2021/09/05 10:27:47;;;;;;;7.23;3.80;;;;;;;26.38;31.57;101691.56;6180621;23;20169;-65
2021/09/05 10:30:16;;;;;;;9.90;4.13;;;;;;;26.42;30.98;101697.00;6180949;23;20631;-65
2021/09/05 10:33:00;;;;;;;8.40;4.10;;;;;;;26.54;30.63;101699.31;6180349;23;20161;-65
2021/09/05 10:35:29;;;;;;;8.10;4.00;;;;;;;26.79;31.07;101701.13;6181647;23;20137;-65
2021/09/05 10:38:21;;;;;;;6.50;4.27;;;;;;;27.11;31.20;101702.34;6155515;23;20207;-66
2021/09/05 10:40:55;;;;;;;9.27;3.70;;;;;;;27.49;30.28;101704.31;6181982;23;20137;-65
2021/09/05 10:43:22;;;;;;;4.97;4.10;;;;;;;27.67;28.91;101677.28;6180112;23;20199;-65
2021/09/05 10:45:52;;;;;;;6.90;4.05;;;;;;;27.60;29.32;101683.56;6182553;23;20667;-65
2021/09/05 10:48:35;;;;;;;5.30;3.65;;;;;;;27.70;29.79;101696.19;6183588;23;20157;-66
2021/09/05 10:51:09;;;;;;;10.18;3.67;;;;;;;27.79;28.68;101690.97;6182064;23;20149;-66
2021/09/05 10:53:48;;;;;;;6.13;3.78;;;;;;;28.02;28.44;101689.56;6182733;23;20169;-65
2021/09/05 10:56:20;;;;;;;6.82;3.80;;;;;;;28.00;27.53;101691.38;6157199;23;20202;-66
2021/09/05 10:58:56;;;;;;;5.53;3.70;;;;;;;27.84;28.18;101650.28;6183415;23;20184;-65
2021/09/05 11:01:36;;;;;;;7.70;3.40;;;;;;;28.34;27.47;101686.97;6181116;23;20207;-66
2021/09/05 11:04:14;;;;;;;6.85;3.50;;;;;;;28.49;27.13;101679.63;6182977;23;20528;-65
2021/09/05 11:06:42;;;;;;;6.65;3.40;;;;;;;28.43;26.59;101689.53;6183465;23;20148;-65
2021/09/05 11:09:20;;;;;;;6.70;3.42;;;;;;;28.74;26.60;101684.03;6183572;23;20149;-65
2021/09/05 11:12:03;;;;;;;5.20;3.28;;;;;;;28.85;26.59;101678.22;6182853;23;20185;-66
2021/09/05 11:14:35;;;;;;;5.28;3.55;;;;;;;29.20;26.49;101680.19;6181567;23;21303;-65
2021/09/05 11:17:20;;;;;;;7.63;3.58;;;;;;;28.91;25.61;101672.47;6181389;23;20220;-66
2021/09/05 11:19:45;;;;;;;5.88;3.83;;;;;;;29.02;25.82;101666.66;6182446;23;20142;-65
2021/09/05 11:22:12;;;;;;;6.45;3.70;;;;;;;29.19;25.78;101653.75;6181399;23;20153;-66